Time;durP1;ratioP1;P1;durP2;ratioP2;P2;SDS_P1;SDS_P2;PMS_P1;PMS_P2;Temp;Humidity;BMP_temperature;BMP_pressure;BME280_temperature;BME280_humidity;BME280_pressure;Samples;Min_cycle;Max_cycle;Signal;HPM_P1;HPM_P2
2022/04/01 00:02:01;;;;;;;17.88;12.52;;;5.40;99.90;;;;;;4891402;29;20024;-84
2022/04/01 00:04:26;;;;;;;16.35;11.43;;;5.40;99.90;;;;;;4890427;29;20037;-84
2022/04/01 00:06:52;;;;;;;17.35;11.70;;;5.40;99.90;;;;;;4891179;29;20036;-85
2022/04/01 00:09:18;;;;;;;17.52;11.85;;;5.30;99.90;;;;;;4890186;29;20062;-85
2022/04/01 00:11:44;;;;;;;17.90;11.55;;;5.30;99.90;;;;;;4891075;29;20033;-85
2022/04/01 00:14:10;;;;;;;19.90;13.10;;;5.30;99.90;;;;;;4890149;29;20061;-80
2022/04/01 00:16:35;;;;;;;19.05;11.95;;;5.20;99.90;;;;;;4893048;29;20105;-85
2022/04/01 00:19:03;;;;;;;18.60;12.15;;;5.20;99.90;;;;;;4884594;29;20017;-85
2022/04/01 00:21:28;;;;;;;18.85;12.60;;;5.20;99.90;;;;;;4895677;29;20049;-86
2022/04/01 00:23:54;;;;;;;19.27;12.10;;;5.20;99.90;;;;;;4900507;29;20033;-83
2022/04/01 00:26:20;;;;;;;17.17;12.00;;;5.10;99.90;;;;;;4900677;29;20024;-83
2022/04/01 00:28:46;;;;;;;18.63;12.00;;;5.10;99.90;;;;;;4910019;29;20056;-82
2022/04/01 00:31:12;;;;;;;17.92;11.68;;;5.10;99.90;;;;;;4910168;29;20048;-82
2022/04/01 00:33:37;;;;;;;17.60;11.65;;;5.10;99.90;;;;;;4924427;29;20029;-84
2022/04/01 00:36:04;;;;;;;17.35;11.63;;;5.20;99.90;;;;;;4899784;29;20529;-85
2022/04/01 00:38:30;;;;;;;22.02;12.50;;;5.10;99.90;;;;;;4907405;29;20020;-80
2022/04/01 00:40:57;;;;;;;19.05;12.25;;;5.10;99.90;;;;;;4928334;29;20025;-82
2022/04/01 00:43:32;;;;;;;18.30;11.73;;;5.00;99.90;;;;;;4908055;29;20025;-86
2022/04/01 00:45:58;;;;;;;19.38;12.45;;;5.10;99.90;;;;;;4902750;29;20033;-83
2022/04/01 00:48:26;;;;;;;18.48;11.60;;;5.00;99.90;;;;;;4891100;29;20060;-84
2022/04/01 00:50:54;;;;;;;18.73;12.25;;;5.00;99.90;;;;;;4896972;29;20033;-84
2022/04/01 00:53:21;;;;;;;17.42;11.85;;;5.00;99.90;;;;;;4898107;29;20076;-85
2022/04/01 00:55:48;;;;;;;20.02;12.77;;;5.00;99.90;;;;;;4900403;29;20033;-83
2022/04/01 00:58:15;;;;;;;20.45;12.98;;;5.00;99.90;;;;;;4904791;29;20044;-83
2022/04/01 01:00:41;;;;;;;19.15;12.25;;;5.00;99.90;;;;;;4915870;29;20029;-82
2022/04/01 01:03:07;;;;;;;16.92;11.38;;;4.90;99.90;;;;;;4901865;29;20072;-82
2022/04/01 01:05:33;;;;;;;18.80;11.65;;;4.90;99.90;;;;;;4901596;29;20033;-81
2022/04/01 01:08:04;;;;;;;20.17;12.38;;;5.00;99.90;;;;;;4908303;29;20239;-84
2022/04/01 01:10:30;;;;;;;19.25;11.85;;;5.00;99.90;;;;;;4903476;29;20056;-84
2022/04/01 01:12:56;;;;;;;17.38;11.38;;;4.90;99.90;;;;;;4883809;29;20029;-84
2022/04/01 01:15:25;;;;;;;17.15;11.77;;;4.90;99.90;;;;;;4907041;29;20136;-85
2022/04/01 01:17:51;;;;;;;16.70;11.15;;;4.90;99.90;;;;;;4906217;29;20025;-85
2022/04/01 01:20:17;;;;;;;16.20;10.82;;;4.90;99.90;;;;;;4891939;29;20040;-84
2022/04/01 01:22:47;;;;;;;20.55;11.65;;;4.90;99.90;;;;;;4909391;29;20053;-83
2022/04/01 01:25:14;;;;;;;18.88;11.45;;;4.90;99.90;;;;;;4914275;29;20039;-82
2022/04/01 01:27:41;;;;;;;17.08;11.30;;;4.90;99.90;;;;;;4912328;29;20061;-85
2022/04/01 01:30:08;;;;;;;17.33;11.80;;;4.90;99.90;;;;;;4891023;29;20036;-84
2022/04/01 01:32:35;;;;;;;15.75;11.15;;;4.90;99.90;;;;;;4879183;29;20025;-83
2022/04/01 01:35:04;;;;;;;18.80;12.18;;;4.90;99.90;;;;;;4897876;29;20057;-82
2022/04/01 01:37:30;;;;;;;18.13;11.18;;;4.90;99.90;;;;;;4916133;29;20037;-82
2022/04/01 01:39:56;;;;;;;24.05;11.73;;;4.80;99.90;;;;;;4902465;29;20045;-80
2022/04/01 01:42:22;;;;;;;17.83;12.10;;;4.80;99.90;;;;;;4902538;29;20021;-81
2022/04/01 01:44:49;;;;;;;16.77;11.30;;;4.80;99.90;;;;;;4902729;29;20084;-84
2022/04/01 01:47:15;;;;;;;17.17;11.43;;;4.80;99.90;;;;;;4896981;29;20409;-83
2022/04/01 01:54:42;;;;;;;18.92;11.70;;;4.80;99.90;;;;;;4894416;29;20033;-86
2022/04/01 01:55:12;;;;;;;17.47;10.73;;;4.80;99.90;;;;;;4899371;29;20037;-84
2022/04/01 01:57:38;;;;;;;17.90;10.77;;;4.80;99.90;;;;;;4896040;29;20085;-83
2022/04/01 02:00:10;;;;;;;18.60;10.80;;;4.70;99.90;;;;;;4901879;29;20089;-84
2022/04/01 02:02:39;;;;;;;16.83;10.68;;;4.70;99.90;;;;;;4901197;29;20025;-82
2022/04/01 02:05:08;;;;;;;18.92;11.52;;;4.70;99.90;;;;;;4886468;29;20017;-81
2022/04/01 02:07:34;;;;;;;17.15;10.77;;;4.70;99.90;;;;;;4917049;29;20025;-82
2022/04/01 02:10:00;;;;;;;16.85;10.25;;;4.70;99.90;;;;;;4916587;29;20058;-81
2022/04/01 02:12:27;;;;;;;17.90;10.70;;;4.70;99.90;;;;;;4896132;29;20489;-85
2022/04/01 02:14:53;;;;;;;16.67;11.20;;;4.70;99.90;;;;;;4893903;29;20092;-83
2022/04/01 02:17:19;;;;;;;18.77;11.18;;;4.70;99.90;;;;;;4893737;29;20085;-84
2022/04/01 02:19:44;;;;;;;17.10;11.30;;;4.70;99.90;;;;;;4893144;29;20036;-84
2022/04/01 02:22:10;;;;;;;18.27;11.25;;;4.70;99.90;;;;;;4892810;29;20058;-85
2022/04/01 02:24:38;;;;;;;20.70;12.05;;;4.70;99.90;;;;;;4888033;29;20029;-84
2022/04/01 02:27:05;;;;;;;19.50;11.68;;;4.80;99.90;;;;;;4901131;29;20053;-85
2022/04/01 02:29:30;;;;;;;18.05;11.63;;;4.80;99.90;;;;;;4907376;29;20335;-84
2022/04/01 02:32:16;;;;;;;18.25;11.63;;;4.80;99.90;;;;;;4891493;29;20052;-82
2022/04/01 02:34:54;;;;;;;20.17;11.95;;;4.80;99.90;;;;;;4891183;29;20189;-85
2022/04/01 02:37:21;;;;;;;19.50;11.43;;;4.80;99.90;;;;;;4884686;29;20037;-85
2022/04/01 02:39:47;;;;;;;20.73;12.05;;;4.80;99.90;;;;;;4890256;29;20036;-83
2022/04/01 02:42:13;;;;;;;18.70;11.95;;;4.80;99.90;;;;;;4906676;29;20036;-85
2022/04/01 02:44:39;;;;;;;18.95;12.00;;;4.80;99.90;;;;;;4909441;29;20053;-83
2022/04/01 02:47:06;;;;;;;19.35;12.00;;;4.80;99.90;;;;;;4910043;29;20029;-84
2022/04/01 02:49:32;;;;;;;17.23;11.60;;;4.80;99.90;;;;;;4908138;29;20050;-86
2022/04/01 02:52:03;;;;;;;18.45;11.25;;;4.70;99.90;;;;;;4894893;29;20039;-85
2022/04/01 02:54:35;;;;;;;18.27;11.75;;;4.80;99.90;;;;;;4910015;29;20033;-84
2022/04/01 02:57:02;;;;;;;18.10;10.95;;;4.70;99.90;;;;;;4909900;29;20025;-84
2022/04/01 02:59:29;;;;;;;16.85;10.88;;;4.70;99.90;;;;;;4894311;29;20025;-85
2022/04/01 03:01:55;;;;;;;17.52;11.10;;;4.70;99.90;;;;;;4909348;29;20025;-83
2022/04/01 03:04:22;;;;;;;18.17;11.52;;;4.70;99.90;;;;;;4894288;29;20028;-85
2022/04/01 03:06:59;;;;;;;19.90;12.88;;;4.60;99.90;;;;;;4893686;29;20048;-85
2022/04/01 03:09:27;;;;;;;20.60;12.23;;;4.70;99.90;;;;;;4895708;29;20430;-84
2022/04/01 03:12:00;;;;;;;17.50;11.18;;;4.70;99.90;;;;;;4893947;29;20029;-83
2022/04/01 03:14:44;;;;;;;21.90;11.32;;;4.70;99.90;;;;;;4895511;29;20061;-85
2022/04/01 03:17:31;;;;;;;18.67;11.40;;;4.70;99.90;;;;;;4883627;29;20048;-84
2022/04/01 03:19:59;;;;;;;21.63;11.63;;;4.70;99.90;;;;;;4913726;29;20029;-85
2022/04/01 03:22:26;;;;;;;19.33;12.13;;;4.70;99.90;;;;;;4895480;29;20031;-86
2022/04/01 03:24:52;;;;;;;19.80;11.98;;;4.70;99.90;;;;;;4895074;29;20399;-85
2022/04/01 03:27:18;;;;;;;17.08;11.32;;;4.70;99.90;;;;;;4879995;29;20037;-85
2022/04/01 03:29:45;;;;;;;20.27;13.20;;;4.80;99.90;;;;;;4908936;29;20516;-86
2022/04/01 03:32:13;;;;;;;18.13;11.30;;;4.80;99.90;;;;;;4894227;29;20085;-84
2022/04/01 03:34:41;;;;;;;20.27;12.07;;;4.80;99.90;;;;;;4909696;29;20025;-86
2022/04/01 03:37:07;;;;;;;17.92;11.73;;;4.80;99.90;;;;;;4913056;29;20068;-83
2022/04/01 03:39:35;;;;;;;19.45;11.48;;;4.70;99.90;;;;;;4898428;29;20126;-84
2022/04/01 03:42:06;;;;;;;19.00;11.05;;;4.70;99.90;;;;;;4919067;29;20041;-79
2022/04/01 03:44:36;;;;;;;18.48;11.18;;;4.70;99.90;;;;;;4919367;29;20037;-82
2022/04/01 03:47:26;;;;;;;21.20;12.07;;;4.80;99.90;;;;;;4900659;29;20028;-82
2022/04/01 03:49:59;;;;;;;17.52;11.50;;;4.80;99.90;;;;;;4918735;29;20029;-82
2022/04/01 03:52:26;;;;;;;20.30;12.43;;;4.80;99.90;;;;;;4902406;29;20033;-85
2022/04/01 03:54:56;;;;;;;19.65;12.85;;;4.70;99.90;;;;;;4898781;29;20095;-85
2022/04/01 03:58:00;;;;;;;19.02;12.80;;;4.80;99.90;;;;;;4870090;29;20067;-82
2022/04/01 04:01:01;;;;;;;19.48;12.27;;;4.80;99.90;;;;;;4887117;29;20030;-83
2022/04/01 04:03:29;;;;;;;19.67;12.48;;;4.70;99.90;;;;;;4928127;23;20048;-80
2022/04/01 04:05:56;;;;;;;18.98;12.45;;;4.80;99.90;;;;;;4915974;29;20029;-79
2022/04/01 04:08:23;;;;;;;17.52;11.13;;;4.80;99.90;;;;;;4900263;29;20061;-80
2022/04/01 04:10:51;;;;;;;18.02;11.88;;;4.80;99.90;;;;;;4917044;29;20028;-79
2022/04/01 04:13:25;;;;;;;17.23;11.10;;;4.80;99.90;;;;;;4915093;29;20501;-78
2022/04/01 04:16:20;;;;;;;16.08;11.10;;;4.70;99.90;;;;;;4915900;29;20135;-80
2022/04/01 04:18:52;;;;;;;17.23;11.10;;;4.70;99.90;;;;;;4894934;29;20061;-80
2022/04/01 04:21:24;;;;;;;15.65;10.52;;;4.70;99.90;;;;;;4916070;29;20043;-81
2022/04/01 04:23:56;;;;;;;15.68;10.93;;;4.70;99.90;;;;;;4914465;29;20056;-79
2022/04/01 04:26:30;;;;;;;18.27;11.43;;;4.70;99.90;;;;;;4912887;29;20029;-79
2022/04/01 04:29:07;;;;;;;18.17;11.40;;;4.70;99.90;;;;;;4915038;29;20047;-80
2022/04/01 04:31:52;;;;;;;23.42;11.60;;;4.70;99.90;;;;;;4910235;29;20291;-78
2022/04/01 04:34:21;;;;;;;19.35;11.50;;;4.60;99.90;;;;;;4915338;29;20036;-79
2022/04/01 04:36:51;;;;;;;17.27;11.50;;;4.70;99.90;;;;;;4898129;29;20041;-79
2022/04/01 04:39:33;;;;;;;18.83;12.20;;;4.70;99.90;;;;;;4913802;29;20028;-78
2022/04/01 04:42:02;;;;;;;20.77;12.50;;;4.70;99.90;;;;;;4912885;29;20293;-82
2022/04/01 04:44:30;;;;;;;18.98;12.52;;;4.70;99.90;;;;;;4896351;29;20032;-80
2022/04/01 04:46:58;;;;;;;19.15;12.43;;;4.70;99.90;;;;;;4912868;29;20040;-78
2022/04/01 04:49:27;;;;;;;19.50;12.52;;;4.80;99.90;;;;;;4915751;29;20037;-81
2022/04/01 04:51:56;;;;;;;21.90;12.88;;;4.80;99.90;;;;;;4915799;29;20025;-79
2022/04/01 04:54:27;;;;;;;19.70;11.70;;;4.80;99.90;;;;;;4915797;29;20083;-81
2022/04/01 04:57:11;;;;;;;17.02;11.52;;;4.80;99.90;;;;;;4900566;29;20044;-80
2022/04/01 04:59:41;;;;;;;17.88;11.48;;;4.80;99.90;;;;;;4913616;29;20214;-83
2022/04/01 05:02:21;;;;;;;16.90;10.90;;;4.70;99.90;;;;;;4913489;29;20469;-80
2022/04/01 05:05:31;;;;;;;18.65;11.20;;;4.70;99.90;;;;;;4910906;29;20044;-82
2022/04/01 05:08:54;;;;;;;;;;;4.70;99.90;;;;;;4853824;29;20033;-79
2022/04/01 05:11:36;;;;;;;18.42;10.55;;;4.70;99.90;;;;;;4854485;29;19976;-79
2022/04/01 05:14:33;;;;;;;16.85;10.40;;;4.70;99.90;;;;;;4900433;29;20067;-81
2022/04/01 05:17:04;;;;;;;22.92;11.10;;;4.70;99.90;;;;;;4912908;29;20044;-80
2022/04/01 05:19:36;;;;;;;18.05;10.75;;;4.70;99.90;;;;;;4914502;29;20065;-82
2022/04/01 05:22:10;;;;;;;15.35;10.07;;;4.80;99.90;;;;;;4914719;29;20476;-81
2022/04/01 05:25:01;;;;;;;16.85;10.93;;;4.80;99.90;;;;;;4914557;29;20076;-79
2022/04/01 05:27:32;;;;;;;16.10;10.35;;;4.80;99.90;;;;;;4919160;29;20040;-80
2022/04/01 05:30:16;;;;;;;19.92;10.95;;;4.80;99.90;;;;;;4901260;29;20048;-79
2022/04/01 05:33:09;;;;;;;16.38;9.77;;;4.80;99.90;;;;;;4916363;29;20542;-80
2022/04/01 05:35:38;;;;;;;16.83;10.88;;;4.80;99.90;;;;;;4915356;29;20036;-79
2022/04/01 05:38:07;;;;;;;15.20;10.25;;;4.80;99.90;;;;;;4914927;29;20032;-83
2022/04/01 05:40:36;;;;;;;27.75;10.48;;;4.80;99.90;;;;;;4929734;29;20729;-82
2022/04/01 05:43:06;;;;;;;17.85;11.05;;;4.80;99.90;;;;;;4912746;29;20112;-79
2022/04/01 05:45:37;;;;;;;15.75;10.98;;;4.80;99.90;;;;;;4911969;29;20048;-80
2022/04/01 05:48:09;;;;;;;16.27;10.90;;;4.80;99.90;;;;;;4912395;29;20039;-79
2022/04/01 05:50:37;;;;;;;20.00;11.07;;;4.80;99.90;;;;;;4916061;29;20036;-79
2022/04/01 05:53:05;;;;;;;20.85;11.10;;;4.80;99.90;;;;;;4917766;29;20017;-79
2022/04/01 05:55:42;;;;;;;15.38;10.20;;;4.90;99.90;;;;;;4906083;29;20037;-78
2022/04/01 05:58:08;;;;;;;16.92;9.95;;;4.80;99.90;;;;;;4920846;29;20075;-77
2022/04/01 06:01:02;;;;;;;15.90;10.85;;;4.90;99.90;;;;;;4919887;29;20084;-79
2022/04/01 06:04:01;;;;;;;18.33;10.32;;;4.90;99.90;;;;;;4917291;29;20041;-78
2022/04/01 06:06:40;;;;;;;17.23;9.77;;;4.90;99.90;;;;;;4920544;29;20043;-80
2022/04/01 06:09:34;;;;;;;16.98;10.43;;;5.00;99.90;;;;;;4917974;29;20104;-80
2022/04/01 06:12:30;;;;;;;16.75;9.10;;;5.00;99.90;;;;;;4920756;29;20083;-79
2022/04/01 06:15:32;;;;;;;14.98;9.30;;;4.90;99.90;;;;;;4904734;29;20048;-77
2022/04/01 06:18:33;;;;;;;15.45;9.10;;;5.00;99.90;;;;;;4921224;29;20041;-80
2022/04/01 06:21:05;;;;;;;13.80;9.27;;;5.00;99.90;;;;;;4920102;29;20025;-81
2022/04/01 06:24:02;;;;;;;14.55;9.18;;;5.00;99.90;;;;;;4909413;29;20045;-79
2022/04/01 06:26:40;;;;;;;13.93;8.77;;;5.10;99.90;;;;;;4912644;29;20037;-79
2022/04/01 06:29:27;;;;;;;14.27;8.30;;;5.10;99.90;;;;;;4908911;29;20012;-79
2022/04/01 06:32:05;;;;;;;12.93;8.23;;;5.10;99.90;;;;;;4924762;29;20024;-81
2022/04/01 06:34:50;;;;;;;15.18;8.55;;;5.10;99.90;;;;;;4915949;29;20037;-79
2022/04/01 06:37:47;;;;;;;16.75;8.43;;;5.20;99.90;;;;;;4928455;29;20032;-82
2022/04/01 06:40:23;;;;;;;15.00;7.97;;;5.30;99.90;;;;;;4930206;29;20052;-81
2022/04/01 06:42:55;;;;;;;15.43;8.57;;;5.30;99.90;;;;;;4915471;29;20107;-80
2022/04/01 06:45:53;;;;;;;10.30;6.95;;;5.30;99.90;;;;;;4911274;29;20037;-80
2022/04/01 06:48:45;;;;;;;14.60;7.45;;;5.20;99.90;;;;;;4927337;29;20052;-79
2022/04/01 06:51:47;;;;;;;11.30;7.13;;;5.20;99.90;;;;;;4885872;29;20049;-79
2022/04/01 06:54:31;;;;;;;13.52;6.93;;;5.20;99.90;;;;;;4916165;29;20104;-79
2022/04/01 06:57:16;;;;;;;9.77;6.53;;;5.30;99.90;;;;;;4934090;29;20031;-79
2022/04/01 06:59:57;;;;;;;10.00;7.00;;;5.30;99.90;;;;;;4926832;29;20040;-80
2022/04/01 07:02:23;;;;;;;13.73;6.00;;;5.40;99.90;;;;;;4931805;29;20036;-81
2022/04/01 07:04:49;;;;;;;10.30;6.32;;;5.40;99.90;;;;;;4908230;29;20044;-80
2022/04/01 07:07:15;;;;;;;10.05;6.57;;;5.40;99.90;;;;;;4919024;29;20017;-81
2022/04/01 07:09:41;;;;;;;10.77;6.90;;;5.40;99.90;;;;;;4925036;29;20021;-78
2022/04/01 07:12:08;;;;;;;9.32;6.63;;;5.40;99.90;;;;;;4928506;29;20028;-80
2022/04/01 07:14:35;;;;;;;12.30;6.80;;;5.40;99.90;;;;;;4928219;29;20036;-79
2022/04/01 07:17:01;;;;;;;8.82;5.88;;;5.50;99.90;;;;;;4939990;29;20031;-79
2022/04/01 07:19:27;;;;;;;10.40;6.80;;;5.60;99.90;;;;;;4924850;29;20033;-79
2022/04/01 07:21:56;;;;;;;9.27;6.10;;;5.50;99.90;;;;;;4908388;29;20021;-78
2022/04/01 07:24:21;;;;;;;10.90;6.13;;;5.50;99.90;;;;;;4936996;29;20032;-79
2022/04/01 07:26:47;;;;;;;11.50;5.90;;;5.50;99.90;;;;;;4918689;29;20068;-80
2022/04/01 07:29:13;;;;;;;8.13;5.72;;;5.50;99.90;;;;;;4924563;29;20005;-78
2022/04/01 07:34:41;;;;;;;8.55;5.72;;;5.50;99.90;;;;;;4912237;29;20040;-79
2022/04/01 07:37:08;;;;;;;8.07;5.78;;;5.50;99.90;;;;;;4922611;29;20031;-79
2022/04/01 07:39:34;;;;;;;9.00;6.13;;;5.40;99.90;;;;;;4916197;29;20040;-81
2022/04/01 07:42:00;;;;;;;8.30;6.22;;;5.50;99.90;;;;;;4913868;29;20015;-80
2022/04/01 07:44:26;;;;;;;9.38;5.85;;;5.50;99.90;;;;;;4918133;29;20032;-81
2022/04/01 07:46:53;;;;;;;6.95;5.32;;;5.50;99.90;;;;;;4927155;29;20055;-81
2022/04/01 07:49:20;;;;;;;10.05;5.78;;;5.60;99.90;;;;;;4917580;29;20024;-82
2022/04/01 07:51:46;;;;;;;8.98;5.75;;;5.50;99.90;;;;;;4940881;29;20044;-80
2022/04/01 07:54:13;;;;;;;10.07;6.00;;;5.60;99.90;;;;;;4920827;29;20122;-81
2022/04/01 07:56:40;;;;;;;10.20;5.63;;;5.70;99.90;;;;;;4920351;29;20033;-80
2022/04/01 07:59:08;;;;;;;7.88;5.50;;;5.70;99.90;;;;;;4926343;29;20036;-80
2022/04/01 08:01:34;;;;;;;7.85;5.55;;;5.80;99.90;;;;;;4926945;29;20033;-80
2022/04/01 08:04:00;;;;;;;9.70;5.80;;;5.80;99.90;;;;;;4923253;29;20019;-82
2022/04/01 08:06:26;;;;;;;8.50;5.38;;;5.90;99.90;;;;;;4930612;29;20020;-79
2022/04/01 08:08:55;;;;;;;8.82;5.85;;;5.90;99.90;;;;;;4912095;29;20128;-82
2022/04/01 08:11:22;;;;;;;7.05;5.22;;;5.80;99.90;;;;;;4904886;29;20032;-82
2022/04/01 08:13:48;;;;;;;10.10;6.22;;;5.80;99.90;;;;;;4897880;29;20025;-80
2022/04/01 08:16:14;;;;;;;6.55;5.13;;;5.90;99.90;;;;;;4907325;29;20084;-82
2022/04/01 08:18:40;;;;;;;11.20;5.55;;;5.90;99.90;;;;;;4913173;29;20070;-80
2022/04/01 08:21:07;;;;;;;8.70;5.82;;;6.00;99.90;;;;;;4911157;29;20017;-81
2022/04/01 08:23:35;;;;;;;9.15;5.55;;;6.00;99.90;;;;;;4910750;29;20754;-79
2022/04/01 08:26:04;;;;;;;9.27;5.65;;;6.00;99.90;;;;;;4920136;29;20028;-83
2022/04/01 08:28:31;;;;;;;8.45;5.78;;;5.90;99.90;;;;;;4920254;29;20041;-81
2022/04/01 08:30:57;;;;;;;15.02;5.63;;;6.00;99.90;;;;;;4918726;29;20027;-79
2022/04/01 08:33:23;;;;;;;8.63;6.22;;;6.00;99.90;;;;;;4929648;29;20032;-79
2022/04/01 08:35:49;;;;;;;7.53;5.75;;;6.10;99.90;;;;;;4928514;29;20028;-79
2022/04/01 08:38:16;;;;;;;7.20;5.55;;;6.10;99.90;;;;;;4922679;29;20020;-79
2022/04/01 08:40:42;;;;;;;7.75;6.20;;;6.10;99.90;;;;;;4926301;29;20147;-79
2022/04/01 08:43:08;;;;;;;8.30;5.30;;;6.20;99.90;;;;;;4925946;29;20036;-79
2022/04/01 08:45:37;;;;;;;12.95;6.15;;;6.20;99.90;;;;;;4922416;29;20055;-80
2022/04/01 08:48:35;;;;;;;8.20;5.28;;;6.20;99.90;;;;;;4931243;29;20091;-78
2022/04/01 08:51:02;;;;;;;9.75;6.00;;;6.20;99.90;;;;;;4923040;29;20104;-78
2022/04/01 08:53:28;;;;;;;11.18;6.35;;;6.20;99.90;;;;;;4911142;29;20032;-80
2022/04/01 08:55:56;;;;;;;8.60;5.88;;;6.30;99.90;;;;;;4921698;29;20044;-79
2022/04/01 08:58:23;;;;;;;9.95;6.03;;;6.40;99.90;;;;;;4905689;29;20033;-80
2022/04/01 09:00:51;;;;;;;12.30;6.00;;;6.50;99.90;;;;;;4918267;29;20024;-78
2022/04/01 09:03:19;;;;;;;8.65;5.93;;;6.50;99.90;;;;;;4917222;29;20036;-79
2022/04/01 09:05:56;;;;;;;12.00;6.28;;;6.40;99.90;;;;;;4912049;29;20083;-81
2022/04/01 09:08:24;;;;;;;7.72;5.93;;;6.40;99.90;;;;;;4924747;29;20028;-80
2022/04/01 09:10:55;;;;;;;10.30;5.97;;;6.40;99.90;;;;;;4909978;29;20028;-79
2022/04/01 09:13:23;;;;;;;7.00;5.53;;;6.40;99.90;;;;;;4920532;29;20032;-82
2022/04/01 09:15:49;;;;;;;8.13;6.03;;;6.40;99.90;;;;;;4920229;29;20057;-80
2022/04/01 09:18:35;;;;;;;8.75;5.28;;;6.40;99.90;;;;;;4920768;29;20009;-83
2022/04/01 09:21:01;;;;;;;9.00;5.93;;;6.50;99.90;;;;;;4920688;29;20017;-83
2022/04/01 09:23:27;;;;;;;10.52;5.40;;;6.40;99.90;;;;;;4920526;29;20017;-81
2022/04/01 09:25:54;;;;;;;8.20;5.63;;;6.50;99.90;;;;;;4920450;29;20021;-80
2022/04/01 09:28:31;;;;;;;8.25;5.93;;;6.50;99.90;;;;;;4921815;29;20036;-82
2022/04/01 09:31:09;;;;;;;7.75;5.35;;;6.50;99.90;;;;;;4929417;29;20088;-82
2022/04/01 09:33:46;;;;;;;7.80;5.35;;;6.50;99.90;;;;;;4916624;29;20035;-81
2022/04/01 09:36:17;;;;;;;8.77;5.65;;;6.60;99.90;;;;;;4908201;29;20041;-82
2022/04/01 09:39:06;;;;;;;8.55;6.32;;;6.60;99.90;;;;;;4921338;29;20020;-79
2022/04/01 09:41:54;;;;;;;8.52;6.05;;;6.60;99.90;;;;;;4924220;29;20117;-80
2022/04/01 09:44:22;;;;;;;9.15;5.25;;;6.60;99.90;;;;;;4922878;29;20017;-80
2022/04/01 09:46:56;;;;;;;6.90;5.40;;;6.60;99.90;;;;;;4914727;29;20052;-80
2022/04/01 09:49:42;;;;;;;8.40;5.22;;;6.60;99.90;;;;;;4927651;29;20036;-79
2022/04/01 09:52:13;;;;;;;5.85;4.90;;;6.60;99.90;;;;;;4924505;29;20043;-80
2022/04/01 09:54:47;;;;;;;6.78;5.60;;;6.70;99.90;;;;;;4928175;29;20047;-82
2022/04/01 09:57:17;;;;;;;8.60;5.50;;;6.80;99.90;;;;;;4922839;29;20032;-81
2022/04/01 09:59:45;;;;;;;6.90;5.15;;;6.70;99.90;;;;;;4920489;29;20028;-83
2022/04/01 10:02:11;;;;;;;6.57;5.18;;;6.70;99.90;;;;;;4925931;29;20023;-81
2022/04/01 10:04:43;;;;;;;8.05;5.28;;;6.60;99.90;;;;;;5310831;23;20036;-89
2022/04/01 10:07:13;;;;;;;18.77;5.80;;;6.70;99.90;;;;;;4929700;29;20015;-93
2022/04/01 10:15:18;;;;;;;8.52;5.55;;;6.90;99.90;;;;;;4904605;29;20037;-90
2022/04/01 10:17:50;;;;;;;8.07;5.47;;;7.00;99.90;;;;;;4886953;29;20033;-90
2022/04/01 10:20:21;;;;;;;8.80;4.72;;;7.10;99.90;;;;;;4902061;29;20367;-91
2022/04/01 10:23:09;;;;;;;8.60;5.28;;;7.00;99.90;;;;;;4909664;29;20033;-89
2022/04/01 10:25:47;;;;;;;8.38;5.75;;;6.90;99.90;;;;;;4894155;29;20037;-88
2022/04/01 10:28:18;;;;;;;6.68;5.53;;;7.00;99.90;;;;;;4910955;29;20100;-89
2022/04/01 10:30:56;;;;;;;9.55;5.72;;;7.00;99.90;;;;;;4919028;29;20153;-89
2022/04/01 10:33:24;;;;;;;11.38;6.10;;;7.00;99.90;;;;;;4892566;29;20347;-93
2022/04/01 10:35:50;;;;;;;8.80;5.47;;;7.10;99.90;;;;;;4914962;29;20028;-87
2022/04/01 10:38:19;;;;;;;8.07;5.45;;;7.20;99.90;;;;;;4897617;29;20033;-88
2022/04/01 10:40:50;;;;;;;7.63;5.75;;;7.20;99.90;;;;;;4898662;29;20029;-86
2022/04/01 10:43:18;;;;;;;8.05;4.75;;;7.10;99.90;;;;;;4896936;29;20029;-86
2022/04/01 10:45:56;;;;;;;6.45;5.03;;;7.00;99.90;;;;;;4899735;29;20381;-87
2022/04/01 10:51:38;;;;;;;8.75;5.80;;;6.90;99.90;;;;;;4899224;29;20033;-86
2022/04/01 10:54:12;;;;;;;10.07;5.80;;;6.90;99.90;;;;;;4893394;29;20124;-88
2022/04/01 10:56:40;;;;;;;7.38;5.55;;;7.00;99.90;;;;;;4886129;29;20049;-88
2022/04/01 10:59:19;;;;;;;12.10;5.68;;;7.10;99.90;;;;;;4887313;29;20053;-89
2022/04/01 11:01:52;;;;;;;6.47;5.25;;;7.10;99.90;;;;;;4890208;29;20026;-89
2022/04/01 11:04:19;;;;;;;7.38;5.30;;;7.20;99.90;;;;;;4897804;29;20037;-87
2022/04/01 11:06:53;;;;;;;6.97;5.05;;;7.10;99.90;;;;;;4900329;29;20020;-89
2022/04/01 11:09:49;;;;;;;9.73;5.18;;;7.10;99.90;;;;;;4899546;29;20049;-87
2022/04/01 11:12:15;;;;;;;7.55;5.07;;;7.20;99.90;;;;;;4890836;29;20025;-89
2022/04/01 11:14:56;;;;;;;8.48;5.80;;;7.20;99.90;;;;;;4896842;29;20045;-89
2022/04/01 11:17:34;;;;;;;7.60;5.72;;;7.30;99.90;;;;;;4910181;29;20045;-89
2022/04/01 11:20:09;;;;;;;7.10;5.80;;;7.20;99.90;;;;;;4900999;29;20061;-87
2022/04/01 11:22:44;;;;;;;9.63;5.88;;;7.20;99.90;;;;;;4920094;29;20045;-89
2022/04/01 11:25:32;;;;;;;7.47;5.80;;;7.30;99.90;;;;;;4904107;29;20021;-87
2022/04/01 11:28:08;;;;;;;8.05;5.20;;;7.30;99.90;;;;;;4906810;29;20037;-87
2022/04/01 11:30:40;;;;;;;7.07;5.57;;;7.20;99.90;;;;;;4902158;29;20017;-86
2022/04/01 11:33:15;;;;;;;6.95;5.80;;;7.20;99.90;;;;;;4896153;29;20061;-88
2022/04/01 11:35:46;;;;;;;8.73;5.45;;;7.20;99.90;;;;;;4903020;29;20206;-87
2022/04/01 11:38:18;;;;;;;7.28;5.50;;;7.20;99.90;;;;;;4901396;29;20048;-83
2022/04/01 11:40:46;;;;;;;9.98;5.05;;;7.30;99.90;;;;;;4903041;29;20049;-86
2022/04/01 11:43:19;;;;;;;8.25;6.10;;;7.30;99.90;;;;;;4903477;29;20021;-87
2022/04/01 11:45:50;;;;;;;8.27;5.82;;;7.50;99.90;;;;;;4894809;29;20035;-87
2022/04/01 11:48:21;;;;;;;10.77;5.65;;;7.60;99.90;;;;;;4886311;29;20029;-87
2022/04/01 11:50:51;;;;;;;5.38;4.85;;;7.60;99.90;;;;;;4890980;29;20494;-89
2022/04/01 11:53:32;;;;;;;9.80;5.50;;;7.60;99.90;;;;;;4887846;29;20037;-87
2022/04/01 11:56:00;;;;;;;7.25;5.28;;;7.60;99.90;;;;;;4886342;29;20520;-86
2022/04/01 11:58:33;;;;;;;7.25;4.88;;;7.60;99.90;;;;;;4891721;29;20343;-88
2022/04/01 12:00:58;;;;;;;7.28;5.20;;;7.60;99.90;;;;;;4905810;29;20072;-86
2022/04/01 12:03:24;;;;;;;9.65;5.05;;;7.60;99.90;;;;;;4897502;29;20385;-85
2022/04/01 12:08:41;;;;;;;6.93;5.25;;;7.60;99.90;;;;;;4901088;29;20044;-88
2022/04/01 12:08:44;;;;;;;8.32;5.40;;;7.60;99.90;;;;;;4904061;29;20453;-87
2022/04/01 12:11:10;;;;;;;6.68;5.38;;;7.50;99.90;;;;;;4916622;29;20033;-88
2022/04/01 12:13:42;;;;;;;7.15;5.68;;;7.50;99.90;;;;;;4890450;29;20084;-86
2022/04/01 12:16:08;;;;;;;7.82;5.18;;;7.70;99.90;;;;;;4906005;29;20037;-88
2022/04/01 12:18:35;;;;;;;8.85;5.28;;;7.90;99.90;;;;;;4905422;29;20022;-87
2022/04/01 12:21:01;;;;;;;9.07;4.88;;;8.10;99.90;;;;;;4891922;29;20071;-87
2022/04/01 12:23:33;;;;;;;9.60;5.22;;;8.20;99.90;;;;;;4889434;29;20025;-87
2022/04/01 12:26:01;;;;;;;8.02;5.22;;;8.10;99.90;;;;;;4906982;29;20029;-88
2022/04/01 12:28:36;;;;;;;6.65;4.88;;;8.00;99.90;;;;;;4899357;29;20052;-86
2022/04/01 12:31:04;;;;;;;6.85;4.82;;;7.90;99.90;;;;;;4892496;29;20052;-86
2022/04/01 12:33:32;;;;;;;7.00;4.80;;;7.90;99.90;;;;;;4879965;29;20037;-88
2022/04/01 12:36:09;;;;;;;8.45;5.93;;;7.80;99.90;;;;;;4881046;29;20033;-87
2022/04/01 12:38:40;;;;;;;6.95;5.03;;;7.60;99.90;;;;;;4917996;29;20056;-88
2022/04/01 12:41:18;;;;;;;7.32;4.90;;;7.60;99.90;;;;;;4903195;29;20119;-89
2022/04/01 12:43:53;;;;;;;8.40;5.07;;;7.60;99.90;;;;;;4896907;29;20375;-88
2022/04/01 12:46:29;;;;;;;14.60;5.07;;;7.60;99.90;;;;;;4896752;29;20025;-87
2022/04/01 12:49:00;;;;;;;8.25;4.30;;;7.60;99.90;;;;;;4898980;29;20020;-87
2022/04/01 12:51:33;;;;;;;9.60;4.65;;;7.50;99.90;;;;;;4884817;29;20029;-87
2022/04/01 12:54:08;;;;;;;6.82;4.53;;;7.50;99.90;;;;;;4900607;29;20136;-88
2022/04/01 12:56:38;;;;;;;;;;;7.40;99.90;;;;;;4909826;29;20052;-86
2022/04/01 12:59:16;;;;;;;6.65;4.32;;;7.50;99.90;;;;;;4898849;29;19923;-87
2022/04/01 13:01:44;;;;;;;7.07;4.93;;;7.60;99.90;;;;;;4899135;29;20033;-87
2022/04/01 13:04:18;;;;;;;12.15;4.70;;;8.00;99.90;;;;;;4883337;29;20036;-88
2022/04/01 13:07:07;;;;;;;6.03;4.20;;;8.20;99.90;;;;;;4879562;29;20041;-87
2022/04/01 13:09:52;;;;;;;5.72;4.03;;;8.30;99.90;;;;;;4896991;29;20040;-87
2022/04/01 13:12:41;;;;;;;6.10;4.20;;;8.40;99.90;;;;;;4883281;29;20093;-87
2022/04/01 13:15:30;;;;;;;;;;;8.50;99.90;;;;;;4883279;29;20097;-87
2022/04/01 13:21:21;;;;;;;5.53;4.13;;;8.50;99.90;;;;;;5794659;23;20043;-91
2022/04/01 13:29:30;;;;;;;7.28;4.63;;;7.90;99.90;;;;;;4902669;27;20627;-88
2022/04/01 13:31:56;;;;;;;7.28;4.38;;;7.70;99.90;;;;;;4924338;29;20105;-89
2022/04/01 13:34:22;;;;;;;6.32;5.18;;;7.70;99.90;;;;;;4922360;29;20025;-89
2022/04/01 13:36:51;;;;;;;6.47;4.90;;;7.60;99.90;;;;;;4909038;29;20025;-87
2022/04/01 13:39:18;;;;;;;6.05;4.78;;;7.70;99.90;;;;;;4918344;29;20051;-86